createdAt,value
2017-11-08T00:01:02.761Z,79.98
2017-11-08T00:03:29.062Z,79.75
2017-11-08T00:05:56.074Z,78.77
2017-11-08T00:08:22.410Z,79.13
2017-11-08T00:10:48.687Z,78.06
2017-11-08T00:13:14.961Z,78.08
2017-11-08T00:15:41.289Z,78.13
2017-11-08T00:18:07.594Z,77.78
2017-11-08T00:20:33.868Z,78.19
2017-11-08T00:23:00.179Z,78.74
2017-11-08T00:25:28.430Z,78.98
2017-11-08T00:27:54.661Z,79.35
2017-11-08T00:30:20.958Z,80.00
2017-11-08T00:32:48.022Z,79.89
2017-11-08T00:35:14.536Z,79.33
2017-11-08T00:37:41.619Z,78.55
2017-11-08T00:40:07.914Z,77.92
2017-11-08T00:42:34.205Z,78.98
2017-11-08T00:45:00.576Z,79.57
2017-11-08T00:47:26.834Z,80.12
2017-11-08T00:49:53.417Z,80.26
2017-11-08T00:52:19.907Z,80.02
2017-11-08T00:54:46.911Z,79.83
2017-11-08T00:57:16.326Z,79.88
2017-11-08T00:59:43.422Z,80.17
2017-11-08T01:02:09.724Z,79.85
2017-11-08T01:04:36.033Z,78.71
2017-11-08T01:07:03.115Z,78.57
2017-11-08T01:09:29.409Z,78.58
2017-11-08T01:11:55.833Z,79.25
2017-11-08T01:14:22.202Z,80.00
2017-11-08T01:16:48.467Z,79.35
2017-11-08T01:19:15.517Z,78.97
2017-11-08T01:21:41.805Z,78.44
2017-11-08T01:24:08.149Z,78.76
2017-11-08T01:26:34.484Z,78.74
2017-11-08T01:29:00.812Z,78.76
2017-11-08T01:31:28.050Z,79.86
2017-11-08T01:33:54.317Z,79.39
2017-11-08T01:36:20.590Z,77.87
2017-11-08T01:38:46.872Z,78.53
2017-11-08T01:41:19.212Z,78.44
2017-11-08T01:43:46.293Z,78.65
2017-11-08T01:46:16.488Z,78.89
2017-11-08T01:48:42.819Z,79.77
2017-11-08T01:51:13.180Z,79.88
2017-11-08T01:53:40.415Z,80.08
2017-11-08T01:56:06.835Z,79.96
2017-11-08T01:58:33.197Z,79.96
2017-11-08T02:00:59.515Z,79.89
2017-11-08T02:03:25.897Z,80.25
2017-11-08T02:05:52.197Z,79.65
2017-11-08T02:08:18.581Z,79.74
2017-11-08T02:10:45.684Z,79.53
2017-11-08T02:13:11.974Z,79.82
2017-11-08T02:15:38.301Z,79.64
2017-11-08T02:18:06.572Z,79.92
2017-11-08T02:20:33.698Z,80.16
2017-11-08T02:23:00.132Z,79.80
2017-11-08T02:25:26.526Z,79.53
2017-11-08T02:27:52.865Z,79.97
2017-11-08T02:30:19.233Z,79.86
2017-11-08T02:32:46.308Z,79.96
2017-11-08T02:35:12.668Z,80.12
2017-11-08T02:37:40.926Z,80.40
2017-11-08T02:40:07.245Z,79.71
2017-11-08T02:42:33.564Z,79.93
2017-11-08T02:45:00.621Z,79.65
2017-11-08T02:47:26.889Z,79.38
2017-11-08T02:49:53.195Z,79.76
2017-11-08T02:52:19.542Z,80.00
2017-11-08T02:54:45.840Z,79.87
2017-11-08T02:57:13.724Z,80.08
2017-11-08T02:59:40.047Z,79.89
2017-11-08T03:02:06.300Z,80.05
2017-11-08T03:04:32.616Z,79.88
2017-11-08T03:06:58.957Z,79.42
2017-11-08T03:09:25.266Z,79.07
2017-11-08T03:11:51.517Z,78.92
2017-11-08T03:14:17.853Z,78.54
2017-11-08T03:16:45.096Z,77.75
2017-11-08T03:19:11.512Z,77.80
2017-11-08T03:21:37.840Z,77.87
2017-11-08T03:24:05.001Z,77.82
2017-11-08T03:26:31.304Z,77.62
2017-11-08T03:28:59.200Z,77.23
2017-11-08T03:31:25.516Z,76.80
2017-11-08T03:33:52.596Z,76.86
2017-11-08T03:36:18.986Z,76.69
2017-11-08T03:38:46.089Z,76.30
2017-11-08T03:41:12.401Z,75.69
2017-11-08T03:43:38.761Z,75.78
2017-11-08T03:46:05.103Z,76.66
2017-11-08T03:48:31.391Z,77.00
2017-11-08T03:50:57.690Z,76.73
2017-11-08T03:53:24.799Z,76.50
2017-11-08T03:55:51.107Z,76.58
2017-11-08T03:58:17.465Z,75.83
2017-11-08T04:00:43.759Z,74.58
2017-11-08T04:03:10.184Z,74.92
2017-11-08T04:05:36.531Z,75.17
2017-11-08T04:08:02.823Z,74.37
2017-11-08T04:10:29.858Z,74.62
2017-11-08T04:12:56.257Z,74.08
2017-11-08T04:15:22.589Z,73.49
2017-11-08T04:17:48.886Z,74.28
2017-11-08T04:20:15.222Z,74.77
2017-11-08T04:22:41.550Z,74.92
2017-11-08T04:25:07.859Z,74.37
2017-11-08T04:27:34.877Z,73.47
2017-11-08T04:30:01.142Z,72.91
2017-11-08T04:32:28.186Z,72.86
2017-11-08T04:34:55.256Z,72.78
2017-11-08T04:37:21.553Z,73.60
2017-11-08T04:39:47.877Z,73.42
2017-11-08T04:42:14.169Z,73.67
2017-11-08T04:44:40.555Z,74.17
2017-11-08T04:47:06.858Z,73.93
2017-11-08T04:49:33.189Z,74.22
2017-11-08T04:51:59.495Z,73.49
2017-11-08T04:54:25.837Z,73.69
2017-11-08T04:56:52.201Z,73.91
2017-11-08T04:59:18.611Z,73.65
2017-11-08T05:01:44.965Z,74.16
2017-11-08T05:04:11.269Z,74.30
2017-11-08T05:06:37.674Z,74.41
2017-11-08T05:09:04.036Z,74.39
2017-11-08T05:11:30.348Z,74.67
2017-11-08T05:13:56.650Z,74.11
2017-11-08T05:16:23.694Z,74.10
2017-11-08T05:18:50.766Z,73.90
2017-11-08T05:21:17.164Z,74.24
2017-11-08T05:23:44.326Z,73.40
2017-11-08T05:26:11.552Z,72.34
2017-11-08T05:28:38.862Z,72.76
2017-11-08T05:31:05.220Z,72.18
2017-11-08T05:33:32.488Z,72.68
2017-11-08T05:35:58.830Z,71.56
2017-11-08T05:38:25.915Z,71.42
2017-11-08T05:40:52.202Z,71.60
2017-11-08T05:43:18.572Z,71.30
2017-11-08T05:45:45.057Z,72.19
2017-11-08T05:48:11.385Z,72.96
2017-11-08T05:50:38.405Z,73.49
2017-11-08T05:53:04.751Z,73.68
2017-11-08T05:55:31.083Z,72.97
2017-11-08T05:57:57.483Z,73.03
2017-11-08T06:00:23.820Z,73.47
2017-11-08T06:02:51.282Z,73.87
2017-11-08T06:05:17.610Z,75.09
2017-11-08T06:07:43.940Z,74.93
2017-11-08T06:10:10.341Z,74.56
2017-11-08T06:12:37.480Z,74.77
2017-11-08T06:15:03.802Z,74.24
2017-11-08T06:17:30.098Z,74.38
2017-11-08T06:19:56.444Z,74.10
2017-11-08T06:22:22.814Z,73.81
2017-11-08T06:24:49.185Z,74.18
2017-11-08T06:27:15.574Z,73.55
2017-11-08T06:29:42.007Z,73.62
2017-11-08T06:32:09.161Z,73.70
2017-11-08T06:34:36.205Z,74.07
2017-11-08T06:37:02.533Z,74.06
2017-11-08T06:39:28.799Z,73.67
2017-11-08T06:41:55.195Z,73.46
2017-11-08T06:44:22.237Z,73.71
2017-11-08T06:46:48.593Z,73.71
2017-11-08T06:49:16.752Z,73.01
2017-11-08T06:51:46.107Z,73.25
2017-11-08T06:54:12.410Z,72.91
2017-11-08T06:56:42.477Z,72.49
2017-11-08T06:59:08.867Z,72.45
2017-11-08T07:01:35.260Z,72.68
2017-11-08T07:04:01.555Z,72.38
2017-11-08T07:06:28.075Z,72.53
2017-11-08T07:08:54.453Z,71.88
2017-11-08T07:11:20.744Z,71.88
2017-11-08T07:13:47.113Z,71.62
2017-11-08T07:16:13.406Z,71.75
2017-11-08T07:18:39.805Z,70.61
2017-11-08T07:21:06.171Z,70.27
2017-11-08T07:23:32.540Z,68.83
2017-11-08T07:25:58.970Z,68.77
2017-11-08T07:28:25.286Z,69.06
2017-11-08T07:30:51.641Z,68.83
2017-11-08T07:33:18.078Z,68.95
2017-11-08T07:35:44.430Z,68.70
2017-11-08T07:38:11.481Z,68.01
2017-11-08T07:40:38.550Z,67.14
2017-11-08T07:43:04.900Z,67.30
2017-11-08T07:45:31.251Z,67.01
2017-11-08T07:47:57.548Z,66.00
2017-11-08T07:50:23.944Z,64.71
2017-11-08T07:52:50.329Z,64.01
2017-11-08T07:55:21.691Z,64.74
2017-11-08T07:57:48.075Z,64.86
2017-11-08T08:00:17.094Z,64.47
2017-11-08T08:02:43.429Z,65.00
2017-11-08T08:05:09.721Z,64.62
2017-11-08T08:07:37.306Z,64.47
2017-11-08T08:10:03.693Z,64.71
2017-11-08T08:12:31.923Z,64.58
2017-11-08T08:14:58.244Z,64.44
2017-11-08T08:17:24.546Z,64.64
2017-11-08T08:19:51.592Z,63.95
2017-11-08T08:22:17.915Z,63.42
2017-11-08T08:24:44.223Z,62.19
2017-11-08T08:27:15.569Z,60.71
2017-11-08T08:29:41.905Z,60.49
2017-11-08T08:32:08.202Z,60.30
2017-11-08T08:34:34.528Z,59.48
2017-11-08T08:37:00.834Z,59.68
2017-11-08T08:39:27.846Z,59.50
2017-11-08T08:41:54.250Z,60.17
2017-11-08T08:46:46.760Z,61.10
2017-11-08T08:49:13.057Z,61.29
2017-11-08T08:51:39.328Z,61.87
2017-11-08T08:54:06.447Z,62.45
2017-11-08T08:56:32.853Z,62.58
2017-11-08T08:59:06.060Z,62.36
2017-11-08T09:01:32.438Z,62.50
2017-11-08T09:03:59.454Z,63.03
2017-11-08T09:06:25.845Z,62.88
2017-11-08T09:08:52.140Z,61.72
2017-11-08T09:11:18.532Z,60.93
2017-11-08T09:13:44.844Z,60.08
2017-11-08T09:16:11.733Z,60.09
2017-11-08T09:18:38.036Z,60.12
2017-11-08T09:21:04.552Z,59.18
2017-11-08T09:23:30.860Z,58.66
2017-11-08T09:25:57.957Z,57.98
2017-11-08T09:28:24.269Z,57.39
2017-11-08T09:30:50.621Z,56.71
2017-11-08T09:33:16.948Z,57.45
2017-11-08T09:35:43.262Z,57.87
2017-11-08T09:38:09.591Z,58.22
2017-11-08T09:40:38.741Z,57.98
2017-11-08T09:43:05.257Z,57.76
2017-11-08T09:45:31.609Z,56.34
2017-11-08T09:47:57.938Z,56.27
2017-11-08T09:50:24.235Z,55.86
2017-11-08T09:52:50.602Z,55.70
2017-11-08T09:55:17.750Z,55.87
2017-11-08T09:57:44.843Z,55.44
2017-11-08T10:00:11.192Z,54.87
2017-11-08T10:02:37.569Z,54.63
2017-11-08T10:05:03.928Z,54.83
2017-11-08T10:07:30.269Z,55.09
2017-11-08T10:09:56.596Z,55.02
2017-11-08T10:12:22.870Z,54.39
2017-11-08T10:14:49.268Z,54.21
2017-11-08T10:17:15.572Z,53.89
2017-11-08T10:19:41.876Z,54.59
2017-11-08T10:22:09.118Z,54.65
2017-11-08T10:24:35.452Z,54.82
2017-11-08T10:27:01.741Z,54.36
2017-11-08T10:29:28.047Z,55.08
2017-11-08T10:31:55.053Z,55.89
2017-11-08T10:34:21.386Z,55.95
2017-11-08T10:36:47.805Z,56.59
2017-11-08T10:39:14.116Z,56.26
2017-11-08T10:41:40.356Z,56.33
2017-11-08T10:44:06.670Z,56.64
2017-11-08T10:46:32.979Z,57.53
2017-11-08T10:49:05.317Z,58.62
2017-11-08T10:51:32.433Z,58.74
2017-11-08T10:53:58.871Z,59.78
2017-11-08T10:56:25.223Z,59.61
2017-11-08T10:58:52.328Z,59.38
2017-11-08T11:01:20.541Z,60.11
2017-11-08T11:03:50.685Z,59.33
2017-11-08T11:06:16.992Z,59.15
2017-11-08T11:08:44.111Z,58.11
2017-11-08T11:11:10.465Z,58.44
2017-11-08T11:13:43.654Z,57.28
2017-11-08T11:16:10.391Z,58.38
2017-11-08T11:18:36.714Z,59.38
2017-11-08T11:21:03.023Z,60.01
2017-11-08T11:23:35.617Z,59.97
2017-11-08T11:26:01.954Z,60.77
2017-11-08T11:28:28.479Z,60.31
2017-11-08T11:30:54.868Z,60.19
2017-11-08T11:33:21.992Z,60.86
2017-11-08T11:35:48.506Z,61.34
2017-11-08T11:38:17.989Z,60.96
2017-11-08T11:40:45.412Z,61.02
2017-11-08T11:43:12.529Z,60.83
2017-11-08T11:45:38.945Z,61.00
2017-11-08T11:48:11.647Z,60.76
2017-11-08T11:50:38.035Z,60.73
2017-11-08T11:53:05.125Z,60.33
2017-11-08T11:55:31.498Z,61.15
2017-11-08T11:57:57.890Z,61.24
2017-11-08T12:00:24.453Z,62.64
2017-11-08T12:02:51.614Z,62.51
2017-11-08T12:05:19.036Z,61.27
2017-11-08T12:07:45.353Z,62.15
2017-11-08T12:10:11.926Z,62.17
2017-11-08T12:12:38.988Z,61.82
2017-11-08T12:15:06.170Z,61.51
2017-11-08T12:17:32.521Z,60.44
2017-11-08T12:19:58.974Z,60.48
2017-11-08T12:22:25.420Z,60.48
2017-11-08T12:24:51.739Z,61.63
2017-11-08T12:27:18.903Z,61.52
2017-11-08T12:29:45.282Z,62.81
2017-11-08T12:32:11.733Z,62.95
2017-11-08T12:34:38.110Z,63.11
2017-11-08T12:37:04.406Z,62.79
2017-11-08T12:39:30.737Z,63.70
2017-11-08T12:41:59.006Z,64.81
2017-11-08T12:44:25.447Z,65.78
2017-11-08T12:46:52.048Z,66.32
2017-11-08T12:49:18.438Z,67.05
2017-11-08T12:51:44.809Z,67.14
2017-11-08T12:54:11.419Z,67.08
2017-11-08T12:56:38.515Z,67.64
2017-11-08T12:59:04.957Z,67.90
2017-11-08T13:01:31.296Z,68.18
2017-11-08T13:03:57.630Z,69.02
2017-11-08T13:06:24.180Z,68.06
2017-11-08T13:08:50.633Z,67.85
2017-11-08T13:11:22.000Z,67.87
2017-11-08T13:13:49.130Z,68.10
2017-11-08T13:16:15.570Z,67.38
2017-11-08T13:18:41.921Z,68.77
2017-11-08T13:21:09.149Z,68.53
2017-11-08T13:23:35.583Z,68.34
2017-11-08T13:26:02.146Z,68.45
2017-11-08T13:28:29.289Z,67.59
2017-11-08T13:30:55.704Z,66.80
2017-11-08T13:33:22.007Z,66.12
2017-11-08T13:35:48.360Z,67.63
2017-11-08T13:38:14.958Z,68.03
2017-11-08T13:40:41.522Z,68.54
2017-11-08T13:43:07.949Z,67.98
2017-11-08T13:45:34.307Z,67.84
2017-11-08T13:48:00.704Z,67.31
2017-11-08T13:50:27.184Z,67.07
2017-11-08T13:52:53.496Z,67.23
2017-11-08T13:55:19.813Z,66.39
2017-11-08T13:57:46.068Z,65.91
2017-11-08T14:00:12.439Z,66.28
2017-11-08T14:02:38.869Z,65.56
2017-11-08T14:05:05.360Z,66.02
2017-11-08T14:07:31.701Z,66.54
2017-11-08T14:09:58.143Z,66.15
2017-11-08T14:12:24.528Z,67.68
2017-11-08T14:14:50.862Z,67.50
2017-11-08T14:17:17.313Z,67.02
2017-11-08T14:19:43.637Z,67.09
2017-11-08T14:22:09.965Z,66.47
2017-11-08T14:24:36.478Z,66.32
2017-11-08T14:27:02.869Z,65.93
2017-11-08T14:29:33.163Z,66.45
2017-11-08T14:31:59.545Z,66.62
2017-11-08T14:34:27.901Z,66.70
2017-11-08T14:36:54.233Z,66.73
2017-11-08T14:39:20.734Z,68.00
2017-11-08T14:41:49.966Z,67.71
2017-11-08T14:44:16.322Z,67.55
2017-11-08T14:46:43.723Z,67.28
2017-11-08T14:49:10.312Z,67.65
2017-11-08T14:51:37.416Z,67.87
2017-11-08T14:54:05.808Z,67.29
2017-11-08T14:56:32.196Z,66.96
2017-11-08T14:58:59.027Z,66.40
2017-11-08T15:01:26.181Z,65.83
2017-11-08T15:03:53.285Z,64.76
2017-11-08T15:06:19.726Z,64.85
2017-11-08T15:08:46.211Z,65.29
2017-11-08T15:11:15.445Z,65.19
2017-11-08T15:13:41.772Z,64.92
2017-11-08T15:16:08.255Z,64.56
2017-11-08T15:18:36.091Z,64.02
2017-11-08T15:21:02.406Z,64.43
2017-11-08T15:23:28.782Z,64.37
2017-11-08T15:25:55.866Z,64.17
2017-11-08T15:28:22.354Z,64.68
2017-11-08T15:30:48.608Z,64.91
2017-11-08T15:33:15.794Z,64.87
2017-11-08T15:35:42.076Z,65.24
2017-11-08T15:38:09.225Z,64.77
2017-11-08T15:40:36.299Z,65.27
2017-11-08T15:43:02.626Z,65.67
2017-11-08T15:45:29.119Z,65.41
2017-11-08T15:47:55.471Z,64.69
2017-11-08T15:50:22.567Z,64.05
2017-11-08T15:52:48.886Z,64.66
2017-11-08T15:55:15.293Z,64.94
2017-11-08T15:57:42.825Z,65.19
2017-11-08T16:00:09.170Z,65.46
2017-11-08T16:02:39.216Z,64.72
2017-11-08T16:05:05.593Z,65.01
2017-11-08T16:07:31.866Z,65.25
2017-11-08T16:09:58.947Z,65.20
2017-11-08T16:12:25.261Z,65.56
2017-11-08T16:14:51.538Z,65.35
2017-11-08T16:17:17.858Z,65.24
2017-11-08T16:19:44.159Z,64.56
2017-11-08T16:22:10.525Z,64.44
2017-11-08T16:24:36.862Z,64.63
2017-11-08T16:27:03.251Z,65.01
2017-11-08T16:29:31.690Z,65.39
2017-11-08T16:31:58.739Z,65.96
2017-11-08T16:34:25.062Z,66.44
2017-11-08T16:36:51.495Z,65.51
2017-11-08T16:39:17.832Z,65.44
2017-11-08T16:41:44.102Z,65.86
2017-11-08T16:44:10.540Z,66.89
2017-11-08T16:46:36.951Z,67.03
2017-11-08T16:49:03.295Z,66.43
2017-11-08T16:51:29.661Z,66.26
2017-11-08T16:53:55.942Z,66.83
2017-11-08T16:56:23.183Z,65.98
2017-11-08T16:58:50.616Z,66.36
2017-11-08T17:01:16.928Z,65.88
2017-11-08T17:03:43.253Z,66.54
2017-11-08T17:06:09.726Z,66.21
2017-11-08T17:08:36.059Z,65.62
2017-11-08T17:11:02.492Z,65.57
2017-11-08T17:13:28.912Z,65.96
2017-11-08T17:15:55.244Z,66.40
2017-11-08T17:18:21.654Z,66.95
2017-11-08T17:20:48.008Z,67.03
2017-11-08T17:23:14.318Z,65.93
2017-11-08T17:25:40.681Z,66.39
2017-11-08T17:28:07.087Z,66.38
2017-11-08T17:30:33.345Z,66.51
2017-11-08T17:32:59.682Z,66.70
2017-11-08T17:35:26.097Z,66.95
2017-11-08T17:37:52.474Z,66.45
2017-11-08T17:40:19.797Z,66.00
2017-11-08T17:42:46.932Z,66.30
2017-11-08T17:45:13.315Z,66.22
2017-11-08T17:47:39.673Z,66.61
2017-11-08T17:50:06.108Z,66.80
2017-11-08T17:52:32.427Z,67.37
2017-11-08T17:54:58.770Z,66.62
2017-11-08T17:57:25.099Z,66.68
2017-11-08T17:59:51.534Z,67.14
2017-11-08T18:02:18.108Z,66.71
2017-11-08T18:04:44.451Z,66.94
2017-11-08T18:07:11.519Z,67.00
2017-11-08T18:09:37.893Z,66.54
2017-11-08T18:12:04.207Z,65.87
2017-11-08T18:14:31.491Z,65.46
2017-11-08T18:16:57.834Z,65.95
2017-11-08T18:19:25.193Z,65.70
2017-11-08T18:21:51.502Z,66.18
2017-11-08T18:24:18.015Z,66.30
2017-11-08T18:26:49.276Z,66.68
2017-11-08T18:29:15.699Z,66.29
2017-11-08T18:31:42.114Z,65.96
2017-11-08T18:34:09.902Z,65.81
2017-11-08T18:36:36.292Z,65.80
2017-11-08T18:39:02.661Z,66.22
2017-11-08T18:41:28.972Z,66.08
2017-11-08T18:43:55.312Z,65.68
2017-11-08T18:46:21.650Z,65.89
2017-11-08T18:48:47.934Z,65.63
2017-11-08T18:51:14.234Z,65.57
2017-11-08T18:53:40.601Z,65.76
2017-11-08T18:56:07.082Z,65.59
2017-11-08T18:58:33.449Z,65.68
2017-11-08T19:00:59.865Z,65.78
2017-11-08T19:03:26.204Z,65.58
2017-11-08T19:05:53.330Z,65.55
2017-11-08T19:08:19.679Z,65.98
2017-11-08T19:10:46.212Z,65.86
2017-11-08T19:13:12.564Z,65.85
2017-11-08T19:15:38.891Z,66.46
2017-11-08T19:18:05.198Z,66.10
2017-11-08T19:20:31.524Z,66.23
2017-11-08T19:22:57.895Z,65.95
2017-11-08T19:25:24.295Z,66.53
2017-11-08T19:27:50.638Z,66.48
2017-11-08T19:30:16.989Z,66.18
2017-11-08T19:32:43.378Z,65.95
2017-11-08T19:35:09.685Z,66.38
2017-11-08T19:37:36.804Z,66.51
2017-11-08T19:40:03.317Z,67.19
2017-11-08T19:42:29.713Z,67.31
2017-11-08T19:44:56.085Z,66.99
2017-11-08T19:47:22.528Z,67.04
2017-11-08T19:49:49.165Z,67.33
2017-11-08T19:52:15.511Z,67.49
2017-11-08T19:54:42.055Z,66.90
2017-11-08T19:57:09.233Z,67.09
2017-11-08T19:59:35.654Z,66.93
2017-11-08T20:02:02.783Z,66.54
2017-11-08T20:04:29.215Z,66.86
2017-11-08T20:06:55.532Z,66.87
2017-11-08T20:09:21.862Z,66.93
2017-11-08T20:11:48.644Z,67.10
2017-11-08T20:14:15.087Z,66.78
2017-11-08T20:16:41.403Z,66.04
2017-11-08T20:19:08.565Z,65.71
2017-11-08T20:21:35.764Z,66.38
2017-11-08T20:24:02.108Z,66.73
2017-11-08T20:26:28.554Z,66.37
2017-11-08T20:28:54.902Z,66.39
2017-11-08T20:31:22.006Z,66.43
2017-11-08T20:33:48.334Z,66.12
2017-11-08T20:36:14.674Z,66.06
2017-11-08T20:38:41.103Z,66.08
2017-11-08T20:41:07.659Z,66.66
2017-11-08T20:43:34.870Z,66.66
2017-11-08T20:46:01.290Z,67.11
2017-11-08T20:48:27.783Z,66.56
2017-11-08T20:50:54.158Z,66.54
2017-11-08T20:53:20.462Z,66.58
2017-11-08T20:55:47.555Z,66.06
2017-11-08T20:58:14.005Z,66.12
2017-11-08T21:00:40.348Z,66.98
2017-11-08T21:03:06.855Z,66.74
2017-11-08T21:05:33.311Z,66.72
2017-11-08T21:07:59.599Z,66.33
2017-11-08T21:10:25.924Z,66.49
2017-11-08T21:12:52.388Z,66.70
2017-11-08T21:15:19.891Z,67.11
2017-11-08T21:17:46.205Z,67.86
2017-11-08T21:20:12.756Z,66.93
2017-11-08T21:22:39.506Z,66.97
2017-11-08T21:25:06.596Z,66.86
2017-11-08T21:27:32.900Z,66.91
2017-11-08T21:29:59.327Z,66.95
2017-11-08T21:32:28.172Z,67.11
2017-11-08T21:34:55.438Z,67.36
2017-11-08T21:40:42.983Z,67.14
2017-11-08T21:43:10.855Z,67.46
2017-11-08T21:45:37.460Z,67.68
2017-11-08T21:48:03.781Z,67.84
2017-11-08T21:50:30.055Z,67.70
2017-11-08T21:52:56.333Z,67.84
2017-11-08T21:55:22.667Z,67.69
2017-11-08T21:57:49.022Z,67.99
2017-11-08T22:00:15.339Z,67.59
2017-11-08T22:02:41.610Z,67.36
2017-11-08T22:05:07.938Z,67.49
2017-11-08T22:07:34.220Z,67.58
2017-11-08T22:10:01.391Z,67.42
2017-11-08T22:12:27.808Z,67.04
2017-11-08T22:14:54.130Z,67.15
2017-11-08T22:17:20.427Z,67.78
2017-11-08T22:19:46.720Z,67.47
2017-11-08T22:22:13.039Z,67.41
2017-11-08T22:24:39.371Z,67.46
2017-11-08T22:27:05.710Z,67.47
2017-11-08T22:29:32.085Z,67.29
2017-11-08T22:31:58.379Z,67.71
2017-11-08T22:34:25.617Z,67.49
2017-11-08T22:36:51.887Z,68.05
2017-11-08T22:39:18.191Z,68.42
2017-11-08T22:41:44.511Z,67.85
2017-11-08T22:44:10.812Z,68.07
2017-11-08T22:46:37.101Z,68.43
2017-11-08T22:49:03.413Z,68.56
2017-11-08T22:51:29.731Z,69.02
2017-11-08T22:53:56.051Z,68.94
2017-11-08T22:56:22.411Z,68.31
2017-11-08T22:58:48.806Z,68.78
2017-11-08T23:01:15.207Z,69.33
2017-11-08T23:03:42.243Z,69.94
2017-11-08T23:06:08.511Z,70.21
2017-11-08T23:08:35.518Z,70.60
2017-11-08T23:11:01.956Z,69.85
2017-11-08T23:13:28.327Z,69.69
2017-11-08T23:15:54.613Z,69.93
2017-11-08T23:18:21.050Z,69.83
2017-11-08T23:20:47.371Z,69.86
2017-11-08T23:23:13.651Z,70.17
2017-11-08T23:25:49.057Z,70.92
2017-11-08T23:28:15.380Z,71.06
2017-11-08T23:30:41.734Z,70.47
2017-11-08T23:33:08.078Z,70.00
2017-11-08T23:35:35.078Z,69.87
2017-11-08T23:38:01.415Z,70.24
2017-11-08T23:40:27.745Z,70.67
2017-11-08T23:42:53.998Z,70.73
2017-11-08T23:45:20.495Z,71.20
2017-11-08T23:47:46.868Z,71.38
2017-11-08T23:50:13.192Z,71.42
2017-11-08T23:52:39.507Z,71.39
2017-11-08T23:55:07.581Z,70.74
2017-11-08T23:57:33.876Z,71.24
